createdAt,value
2023-04-11T00:00:07.151Z,1.97
2023-04-11T00:02:39.257Z,3.50
2023-04-11T00:05:08.436Z,2.70
2023-04-11T00:07:36.791Z,2.77
2023-04-11T00:10:07.227Z,2.87
2023-04-11T00:12:35.351Z,3.37
2023-04-11T00:15:03.858Z,2.47
2023-04-11T00:17:33.664Z,1.87
2023-04-11T00:20:07.928Z,2.67
2023-04-11T00:22:36.581Z,3.20
2023-04-11T00:25:04.637Z,3.40
2023-04-11T00:27:32.745Z,2.93
2023-04-11T00:30:00.871Z,1.80
2023-04-11T00:32:30.618Z,1.70
2023-04-11T00:35:07.759Z,2.03
2023-04-11T00:37:37.134Z,1.63
2023-04-11T00:40:12.484Z,2.47
2023-04-11T00:42:41.550Z,3.13
2023-04-11T00:45:10.852Z,2.53
2023-04-11T00:47:40.460Z,2.23
2023-04-11T00:50:14.289Z,2.47
2023-04-11T00:52:44.370Z,2.33
2023-04-11T00:55:12.968Z,3.00
2023-04-11T00:57:41.996Z,1.67
2023-04-11T01:00:11.958Z,1.90
2023-04-11T01:02:43.410Z,2.20
2023-04-11T01:05:15.066Z,2.87
2023-04-11T01:07:46.406Z,2.50
2023-04-11T01:10:16.671Z,3.03
2023-04-11T01:12:47.383Z,2.93
2023-04-11T01:15:15.976Z,3.60
2023-04-11T01:17:45.655Z,3.00
2023-04-11T01:20:15.859Z,2.60
2023-04-11T01:22:45.110Z,3.17
2023-04-11T01:25:16.628Z,3.43
2023-04-11T01:27:45.047Z,3.00
2023-04-11T01:30:13.868Z,3.10
2023-04-11T01:32:42.032Z,3.23
2023-04-11T01:35:12.841Z,2.70
2023-04-11T01:37:41.014Z,2.93
2023-04-11T01:40:10.083Z,2.57
2023-04-11T01:42:40.560Z,2.63
2023-04-11T01:45:10.452Z,2.53
2023-04-11T01:47:38.719Z,2.90
2023-04-11T01:50:09.033Z,3.03
2023-04-11T01:52:37.550Z,2.93
2023-04-11T01:55:06.260Z,2.63
2023-04-11T01:57:34.316Z,3.67
2023-04-11T02:00:05.964Z,2.60
2023-04-11T02:02:34.031Z,2.37
2023-04-11T02:05:02.102Z,2.53
2023-04-11T02:07:30.330Z,3.87
2023-04-11T02:09:59.222Z,2.17
2023-04-11T02:12:27.433Z,3.03
2023-04-11T02:14:55.474Z,2.20
2023-04-11T02:17:25.918Z,2.00
2023-04-11T02:19:54.899Z,2.50
2023-04-11T02:22:23.069Z,1.67
2023-04-11T02:24:51.364Z,2.40
2023-04-11T02:27:19.613Z,3.80
2023-04-11T02:29:47.599Z,3.00
2023-04-11T02:32:15.701Z,3.23
2023-04-11T02:34:45.278Z,2.20
2023-04-11T02:37:13.358Z,2.33
2023-04-11T02:39:41.437Z,1.90
2023-04-11T02:42:09.407Z,1.77
2023-04-11T02:44:37.446Z,2.40
2023-04-11T02:47:05.623Z,2.53
2023-04-11T02:49:33.691Z,2.80
2023-04-11T02:52:03.242Z,2.90
2023-04-11T02:54:31.278Z,1.97
2023-04-11T02:56:59.341Z,3.03
2023-04-11T02:59:27.392Z,2.90
2023-04-11T03:01:59.673Z,2.80
2023-04-11T03:04:28.033Z,2.80
2023-04-11T03:06:56.741Z,2.03
2023-04-11T03:09:26.472Z,2.47
2023-04-11T03:11:54.472Z,3.10
2023-04-11T03:14:23.077Z,1.90
2023-04-11T03:16:51.228Z,2.20
2023-04-11T03:19:19.704Z,2.07
2023-04-11T03:21:47.662Z,2.93
2023-04-11T03:24:15.728Z,2.87
2023-04-11T03:26:45.128Z,3.20
2023-04-11T03:29:13.111Z,4.20
2023-04-11T03:31:41.416Z,2.37
2023-04-11T03:34:09.481Z,1.97
2023-04-11T03:36:37.589Z,2.30
2023-04-11T03:39:06.283Z,3.40
2023-04-11T03:41:34.394Z,2.70
2023-04-11T03:44:04.493Z,3.30
2023-04-11T03:46:32.701Z,2.93
2023-04-11T03:49:01.250Z,2.63
2023-04-11T03:51:29.446Z,2.67
2023-04-11T03:53:57.725Z,2.40
2023-04-11T03:56:25.763Z,2.83
2023-04-11T03:58:54.008Z,3.43
2023-04-11T04:01:23.765Z,1.63
2023-04-11T04:03:52.209Z,1.63
2023-04-11T04:06:20.284Z,0.87
2023-04-11T04:08:48.261Z,2.20
2023-04-11T04:11:16.208Z,1.90
2023-04-11T04:13:44.533Z,2.43
2023-04-11T04:16:12.666Z,2.57
2023-04-11T04:18:42.275Z,2.47
2023-04-11T04:21:10.414Z,2.60
2023-04-11T04:23:39.466Z,3.30
2023-04-11T04:26:07.955Z,3.37
2023-04-11T04:28:35.954Z,3.43
2023-04-11T04:31:04.188Z,3.00
2023-04-11T04:33:33.265Z,3.33
2023-04-11T04:36:04.411Z,3.73
2023-04-11T04:38:33.654Z,3.63
2023-04-11T04:41:02.117Z,2.63
2023-04-11T04:43:36.068Z,2.50
2023-04-11T04:46:10.434Z,3.00
2023-04-11T04:48:39.305Z,4.03
2023-04-11T04:51:09.468Z,3.00
2023-04-11T04:53:39.108Z,2.83
2023-04-11T04:56:08.132Z,2.83
2023-04-11T04:58:36.146Z,2.17
2023-04-11T05:01:04.263Z,3.30
2023-04-11T05:03:36.316Z,3.30
2023-04-11T05:06:06.602Z,3.77
2023-04-11T05:08:37.549Z,2.53
2023-04-11T05:11:06.287Z,4.60
2023-04-11T05:13:36.072Z,3.57
2023-04-11T05:16:04.516Z,4.30
2023-04-11T05:18:33.036Z,3.50
2023-04-11T05:21:02.709Z,4.80
2023-04-11T05:23:30.837Z,3.60
2023-04-11T05:26:01.319Z,3.73
2023-04-11T05:28:29.431Z,3.60
2023-04-11T05:30:57.600Z,3.57
2023-04-11T05:33:32.022Z,3.60
2023-04-11T05:36:00.508Z,4.00
2023-04-11T05:38:29.377Z,4.23
2023-04-11T05:40:57.963Z,4.40
2023-04-11T05:43:27.679Z,3.97
2023-04-11T05:45:56.123Z,3.73
2023-04-11T05:48:24.277Z,4.53
2023-04-11T05:50:53.265Z,3.80
2023-04-11T05:53:21.367Z,3.77
2023-04-11T05:55:49.454Z,4.07
2023-04-11T05:58:17.527Z,3.60
2023-04-11T06:00:47.393Z,3.77
2023-04-11T06:03:15.792Z,3.73
2023-04-11T06:05:44.378Z,3.03
2023-04-11T06:08:12.670Z,3.07
2023-04-11T06:10:41.072Z,3.07
2023-04-11T06:13:09.543Z,3.00
2023-04-11T06:15:39.691Z,3.13
2023-04-11T06:18:11.891Z,3.57
2023-04-11T06:20:40.205Z,3.00
2023-04-11T06:23:08.811Z,4.13
2023-04-11T06:25:37.083Z,3.53
2023-04-11T06:28:05.837Z,2.60
2023-04-11T06:30:34.750Z,3.10
2023-04-11T06:33:03.308Z,2.70
2023-04-11T06:35:32.952Z,3.00
2023-04-11T06:38:01.103Z,3.07
2023-04-11T06:40:29.850Z,3.20
2023-04-11T06:43:00.826Z,2.50
2023-04-11T06:45:39.357Z,2.60
2023-04-11T06:48:13.768Z,2.93
2023-04-11T06:50:43.618Z,3.47
2023-04-11T06:53:11.911Z,2.70
2023-04-11T06:55:40.076Z,2.87
2023-04-11T06:58:08.115Z,2.33
2023-04-11T07:00:39.117Z,2.53
2023-04-11T07:03:08.941Z,1.70
2023-04-11T07:05:39.532Z,2.40
2023-04-11T07:08:09.510Z,2.70
2023-04-11T07:10:37.530Z,2.33
2023-04-11T07:13:06.232Z,2.80
2023-04-11T07:15:34.298Z,2.30
2023-04-11T07:18:02.984Z,2.63
2023-04-11T07:20:33.136Z,3.13
2023-04-11T07:23:03.218Z,3.20
2023-04-11T07:25:33.812Z,2.83
2023-04-11T07:28:02.124Z,2.57
2023-04-11T07:30:30.274Z,3.27
2023-04-11T07:32:58.391Z,3.00
2023-04-11T07:35:26.486Z,2.77
2023-04-11T07:37:54.583Z,3.07
2023-04-11T07:40:22.930Z,3.00
2023-04-11T07:42:52.709Z,3.43
2023-04-11T07:45:21.406Z,2.33
2023-04-11T07:47:52.160Z,3.27
2023-04-11T07:50:21.502Z,2.67
2023-04-11T07:52:51.404Z,2.67
2023-04-11T07:55:20.000Z,2.60
2023-04-11T07:57:51.095Z,2.67
2023-04-11T08:00:25.161Z,2.30
2023-04-11T08:02:53.481Z,2.50
2023-04-11T08:05:21.931Z,3.00
2023-04-11T08:07:54.436Z,3.20
2023-04-11T08:10:22.484Z,2.57
2023-04-11T08:12:50.783Z,2.20
2023-04-11T08:15:19.013Z,3.20
2023-04-11T08:17:50.535Z,3.40
2023-04-11T08:20:21.660Z,2.63
2023-04-11T08:22:49.947Z,3.47
2023-04-11T08:25:20.094Z,3.20
2023-04-11T08:27:48.304Z,3.67
2023-04-11T08:30:19.592Z,3.13
2023-04-11T08:32:54.195Z,3.43
2023-04-11T08:35:22.724Z,3.73
2023-04-11T08:37:51.880Z,2.73
2023-04-11T08:40:27.140Z,3.23
2023-04-11T08:43:01.533Z,4.07
2023-04-11T08:45:31.081Z,2.77
2023-04-11T08:48:01.336Z,2.87
2023-04-11T08:50:29.893Z,2.97
2023-04-11T08:53:03.939Z,3.20
2023-04-11T08:55:32.668Z,2.23
2023-04-11T08:58:02.945Z,3.23
2023-04-11T09:00:32.986Z,2.60
2023-04-11T09:03:05.390Z,2.30
2023-04-11T09:05:35.757Z,2.47
2023-04-11T09:08:07.521Z,3.00
2023-04-11T09:10:38.055Z,2.40
2023-04-11T09:13:21.754Z,2.23
2023-04-11T09:16:06.662Z,2.20
2023-04-11T09:18:37.795Z,2.70
2023-04-11T09:21:09.888Z,2.83
2023-04-11T09:23:38.651Z,2.33
2023-04-11T09:26:13.160Z,2.47
2023-04-11T09:28:44.685Z,2.63
2023-04-11T09:31:14.396Z,2.13
2023-04-11T09:33:57.151Z,2.63
2023-04-11T09:36:28.633Z,2.50
2023-04-11T09:38:57.366Z,2.60
2023-04-11T09:41:32.998Z,2.53
2023-04-11T09:44:02.398Z,2.70
2023-04-11T09:46:30.869Z,2.63
2023-04-11T09:49:02.746Z,2.30
2023-04-11T09:53:40.435Z,3.33
2023-04-11T09:54:24.306Z,2.87
2023-04-11T09:56:52.801Z,2.83
2023-04-11T09:59:22.885Z,2.17
2023-04-11T10:01:52.965Z,3.07
2023-04-11T10:04:23.289Z,2.30
2023-04-11T10:07:08.507Z,2.30
2023-04-11T10:09:46.183Z,2.53
2023-04-11T10:12:32.093Z,2.37
2023-04-11T10:15:08.395Z,1.93
2023-04-11T10:17:37.775Z,2.30
2023-04-11T10:20:45.136Z,2.07
2023-04-11T10:23:14.189Z,2.20
2023-04-11T10:25:53.629Z,2.53
2023-04-11T10:28:33.269Z,2.67
2023-04-11T10:31:07.086Z,2.90
2023-04-11T10:33:36.433Z,2.20
2023-04-11T10:36:10.726Z,2.47
2023-04-11T10:38:51.701Z,1.90
2023-04-11T10:41:31.804Z,1.90
2023-04-11T10:44:18.614Z,2.00
2023-04-11T10:46:54.009Z,1.60
2023-04-11T10:49:48.324Z,2.20
2023-04-11T10:52:23.159Z,1.87
2023-04-11T10:54:54.192Z,2.00
2023-04-11T10:57:23.255Z,2.10
2023-04-11T11:00:02.537Z,1.90
2023-04-11T11:02:41.359Z,1.57
2023-04-11T11:05:24.247Z,2.03
2023-04-11T11:07:54.992Z,2.07
2023-04-11T11:10:40.995Z,1.70
2023-04-11T11:13:10.071Z,1.87
2023-04-11T11:15:39.099Z,1.63
2023-04-11T11:18:11.450Z,1.70
2023-04-11T11:20:40.855Z,1.33
2023-04-11T11:23:14.004Z,2.20
2023-04-11T11:25:42.785Z,1.37
2023-04-11T11:28:11.715Z,1.47
2023-04-11T11:30:52.148Z,1.30
2023-04-11T11:33:22.689Z,1.50
2023-04-11T11:35:55.844Z,1.20
2023-04-11T11:38:28.529Z,1.33
2023-04-11T11:40:57.448Z,1.07
2023-04-11T11:43:27.468Z,1.67
2023-04-11T11:46:09.593Z,1.30
2023-04-11T11:48:38.245Z,1.60
2023-04-11T11:51:07.261Z,1.57
2023-04-11T11:53:40.839Z,1.20
2023-04-11T11:56:17.090Z,1.50
2023-04-11T11:58:46.122Z,1.30
2023-04-11T12:01:17.166Z,1.00
2023-04-11T12:03:46.310Z,1.53
2023-04-11T12:06:16.207Z,0.97
2023-04-11T12:08:54.055Z,1.20
2023-04-11T12:11:22.540Z,1.33
2023-04-11T12:13:54.313Z,1.00
2023-04-11T12:16:23.628Z,0.97
2023-04-11T12:18:51.753Z,1.00
2023-04-11T12:21:19.745Z,0.77
2023-04-11T12:23:49.198Z,0.90
2023-04-11T12:26:17.832Z,0.80
2023-04-11T12:28:45.974Z,1.10
2023-04-11T12:31:14.929Z,0.87
2023-04-11T12:33:43.260Z,0.93
2023-04-11T12:36:14.861Z,0.80
2023-04-11T12:38:43.226Z,1.10
2023-04-11T12:41:31.104Z,0.90
2023-04-11T12:44:02.325Z,1.00
2023-04-11T12:46:30.559Z,0.87
2023-04-11T12:48:58.745Z,1.10
2023-04-11T12:51:27.817Z,0.90
2023-04-11T12:53:59.095Z,0.80
2023-04-11T12:56:29.074Z,1.00
2023-04-11T12:58:57.632Z,1.03
2023-04-11T13:01:26.793Z,1.27
2023-04-11T13:03:56.333Z,1.10
2023-04-11T13:06:39.175Z,0.90
2023-04-11T13:09:07.979Z,0.80
2023-04-11T13:11:37.532Z,0.83
2023-04-11T13:14:05.617Z,0.53
2023-04-11T13:16:47.089Z,0.67
2023-04-11T13:19:15.525Z,0.50
2023-04-11T13:21:44.540Z,0.60
2023-04-11T13:24:12.830Z,0.77
2023-04-11T13:26:45.316Z,0.50
2023-04-11T13:29:21.429Z,1.00
2023-04-11T13:31:50.314Z,0.67
2023-04-11T13:34:19.339Z,0.80
2023-04-11T13:36:49.646Z,1.10
2023-04-11T13:39:18.625Z,0.80
2023-04-11T13:41:52.804Z,0.83
2023-04-11T13:44:21.238Z,1.00
2023-04-11T13:46:53.588Z,1.30
2023-04-11T13:49:24.670Z,1.20
2023-04-11T13:51:52.910Z,0.67
2023-04-11T13:54:22.895Z,0.67
2023-04-11T13:56:54.399Z,1.07
2023-04-11T13:59:22.992Z,1.17
2023-04-11T14:01:51.092Z,1.27
2023-04-11T14:04:19.331Z,1.00
2023-04-11T14:06:47.851Z,1.10
2023-04-11T14:09:16.117Z,1.10
2023-04-11T14:11:44.227Z,1.03
2023-04-11T14:14:14.002Z,0.70
2023-04-11T14:16:42.367Z,0.80
2023-04-11T14:19:10.674Z,1.03
2023-04-11T14:21:38.798Z,1.00
2023-04-11T14:24:07.365Z,1.23
2023-04-11T14:26:35.781Z,1.03
2023-04-11T14:29:04.465Z,1.20
2023-04-11T14:31:37.230Z,1.10
2023-04-11T14:34:07.250Z,1.50
2023-04-11T14:36:35.423Z,1.60
2023-04-11T14:39:08.272Z,1.17
2023-04-11T14:41:37.086Z,1.10
2023-04-11T14:44:11.076Z,1.20
2023-04-11T14:46:41.167Z,1.20
2023-04-11T14:49:10.382Z,0.93
2023-04-11T14:51:38.870Z,1.13
2023-04-11T14:54:07.556Z,1.20
2023-04-11T14:56:35.930Z,1.23
2023-04-11T14:59:04.295Z,1.33
2023-04-11T15:01:32.442Z,1.10
2023-04-11T15:04:02.463Z,1.20
2023-04-11T15:06:31.927Z,0.90
2023-04-11T15:09:00.559Z,1.53
2023-04-11T15:11:28.694Z,1.47
2023-04-11T15:13:57.581Z,1.30
2023-04-11T15:16:27.734Z,1.07
2023-04-11T15:18:56.985Z,1.27
2023-04-11T15:21:27.647Z,1.57
2023-04-11T15:23:56.719Z,1.33
2023-04-11T15:26:26.424Z,1.30
2023-04-11T15:28:56.512Z,1.30
2023-04-11T15:31:26.934Z,1.63
2023-04-11T15:34:00.235Z,1.90
2023-04-11T15:36:31.724Z,2.03
2023-04-11T15:39:01.116Z,1.53
2023-04-11T15:41:29.370Z,1.50
2023-04-11T15:43:57.961Z,2.07
2023-04-11T15:46:27.284Z,1.53
2023-04-11T15:48:55.552Z,1.67
2023-04-11T15:51:24.303Z,1.20
2023-04-11T15:53:54.780Z,1.60
2023-04-11T15:56:23.111Z,1.20
2023-04-11T15:58:51.473Z,1.73
2023-04-11T16:01:23.075Z,1.20
2023-04-11T16:03:51.647Z,1.20
2023-04-11T16:06:21.959Z,1.43
2023-04-11T16:08:50.960Z,1.50
2023-04-11T16:11:20.535Z,1.00
2023-04-11T16:13:48.694Z,1.40
2023-04-11T16:16:16.970Z,1.13
2023-04-11T16:18:45.028Z,1.13
2023-04-11T16:21:14.664Z,1.10
2023-04-11T16:23:42.982Z,0.93
2023-04-11T16:26:11.353Z,1.10
2023-04-11T16:28:41.555Z,1.20
2023-04-11T16:31:09.677Z,0.73
2023-04-11T16:33:37.752Z,0.80
2023-04-11T16:36:06.531Z,1.00
2023-04-11T16:38:35.180Z,1.20
2023-04-11T16:41:03.521Z,1.00
2023-04-11T16:43:31.522Z,1.13
2023-04-11T16:46:01.269Z,1.50
2023-04-11T16:48:30.754Z,1.67
2023-04-11T16:50:59.256Z,2.20
2023-04-11T16:53:27.326Z,3.00
2023-04-11T16:55:58.093Z,3.47
2023-04-11T16:58:27.377Z,5.00
2023-04-11T17:00:56.068Z,3.13
2023-04-11T17:03:25.797Z,4.27
2023-04-11T17:05:54.033Z,5.07
2023-04-11T17:08:22.309Z,5.23
2023-04-11T17:10:50.398Z,3.53
2023-04-11T17:13:19.638Z,4.60
2023-04-11T17:15:47.756Z,4.97
2023-04-11T17:18:16.067Z,4.93
2023-04-11T17:20:46.832Z,4.40
2023-04-11T17:23:14.946Z,4.47
2023-04-11T17:25:43.083Z,5.80
2023-04-11T17:28:11.154Z,4.70
2023-04-11T17:30:39.669Z,5.00
2023-04-11T17:33:08.073Z,4.50
2023-04-11T17:35:36.408Z,5.20
2023-04-11T17:38:06.138Z,4.27
2023-04-11T17:40:34.659Z,4.20
2023-04-11T17:43:04.013Z,4.10
2023-04-11T17:45:32.368Z,5.13
2023-04-11T17:48:01.429Z,3.13
2023-04-11T17:50:29.890Z,5.40
2023-04-11T17:52:58.197Z,3.80
2023-04-11T17:55:28.119Z,3.57
2023-04-11T17:57:56.211Z,4.23
2023-04-11T18:00:26.386Z,4.60
2023-04-11T18:02:57.823Z,5.00
2023-04-11T18:05:29.517Z,3.90
2023-04-11T18:08:15.583Z,2.73
2023-04-11T18:14:19.213Z,2.80
2023-04-11T18:16:49.671Z,4.63
2023-04-11T18:22:13.793Z,3.30
2023-04-11T18:24:42.247Z,3.77
2023-04-11T18:27:11.345Z,3.20
2023-04-11T18:29:44.106Z,3.13
2023-04-11T18:32:15.332Z,3.03
2023-04-11T18:34:43.388Z,2.83
2023-04-11T18:37:11.437Z,3.43
2023-04-11T18:39:40.046Z,2.97
2023-04-11T18:42:08.858Z,4.37
2023-04-11T18:44:37.838Z,3.37
2023-04-11T18:47:11.196Z,2.07
2023-04-11T18:52:38.167Z,3.60
2023-04-11T18:55:08.252Z,3.07
2023-04-11T18:57:38.027Z,3.97
2023-04-11T19:00:17.377Z,3.80
2023-04-11T19:02:50.909Z,4.00
2023-04-11T19:05:20.706Z,5.37
2023-04-11T19:07:50.679Z,3.00
2023-04-11T19:10:18.704Z,4.00
2023-04-11T19:12:46.901Z,5.50
2023-04-11T19:15:15.238Z,5.20
2023-04-11T19:17:43.568Z,3.73
2023-04-11T19:20:13.721Z,4.33
2023-04-11T19:22:42.949Z,4.10
2023-04-11T19:25:15.498Z,4.00
2023-04-11T19:27:44.284Z,4.67
2023-04-11T19:30:14.218Z,3.10
2023-04-11T19:32:43.693Z,4.77
2023-04-11T19:35:15.282Z,3.67
2023-04-11T19:37:47.590Z,3.40
2023-04-11T19:40:26.103Z,4.67
2023-04-11T19:42:54.980Z,5.63
2023-04-11T19:45:23.513Z,3.87
2023-04-11T19:47:52.475Z,3.33
2023-04-11T19:50:22.997Z,3.43
2023-04-11T19:53:00.214Z,4.07
2023-04-11T19:55:31.867Z,4.50
2023-04-11T19:58:00.558Z,4.20
2023-04-11T20:00:37.102Z,5.33
2023-04-11T20:03:10.976Z,2.57
2023-04-11T20:05:39.995Z,4.53
2023-04-11T20:08:11.478Z,3.20
2023-04-11T20:10:45.832Z,3.50
2023-04-11T20:13:17.255Z,4.70
2023-04-11T20:15:48.180Z,5.50
2023-04-11T20:18:20.769Z,4.93
2023-04-11T20:20:54.531Z,5.00
2023-04-11T20:23:24.954Z,4.30
2023-04-11T20:26:21.983Z,4.27
2023-04-11T20:29:04.440Z,4.73
2023-04-11T20:31:37.554Z,4.53
2023-04-11T20:34:11.946Z,4.77
2023-04-11T20:36:45.608Z,2.63
2023-04-11T20:42:32.275Z,3.00
2023-04-11T20:45:25.234Z,3.23
2023-04-11T20:48:28.153Z,3.73
2023-04-11T20:51:18.843Z,3.87
2023-04-11T20:53:48.906Z,3.60
2023-04-11T20:56:29.264Z,4.40
2023-04-11T20:59:03.802Z,3.47
2023-04-11T21:01:47.798Z,3.70
2023-04-11T21:04:19.929Z,2.67
2023-04-11T21:06:48.979Z,2.53
2023-04-11T21:09:19.170Z,2.87
2023-04-11T21:11:56.980Z,3.77
2023-04-11T21:14:33.469Z,4.20
2023-04-11T21:17:03.119Z,3.33
2023-04-11T21:19:43.293Z,3.57
2023-04-11T21:25:04.313Z,1.70
2023-04-11T21:27:44.054Z,2.57
2023-04-11T21:31:12.864Z,3.47
2023-04-11T21:34:23.520Z,3.00
2023-04-11T21:36:56.761Z,2.40
2023-04-11T21:42:12.447Z,2.50
2023-04-11T21:44:46.719Z,3.03
2023-04-11T21:47:17.344Z,3.33
2023-04-11T21:49:52.503Z,4.23
2023-04-11T21:52:28.442Z,2.70
2023-04-11T21:55:11.439Z,2.27
2023-04-11T21:57:43.225Z,2.30
2023-04-11T22:00:14.405Z,2.73
2023-04-11T22:02:42.980Z,2.77
2023-04-11T22:05:13.056Z,2.27
2023-04-11T22:07:52.115Z,3.93
2023-04-11T22:10:32.405Z,3.63
2023-04-11T22:13:07.640Z,2.63
2023-04-11T22:15:38.638Z,3.10
2023-04-11T22:18:09.697Z,3.20
2023-04-11T22:20:45.662Z,3.00
2023-04-11T22:23:18.866Z,2.40
2023-04-11T22:25:53.555Z,2.43
2023-04-11T22:28:24.741Z,1.87
2023-04-11T22:30:57.928Z,2.30
2023-04-11T22:33:29.702Z,1.93
2023-04-11T22:36:00.849Z,1.87
2023-04-11T22:38:32.190Z,2.07
2023-04-11T22:41:02.039Z,2.50
2023-04-11T22:43:33.039Z,1.67
2023-04-11T22:46:04.617Z,1.70
2023-04-11T22:48:37.486Z,1.30
2023-04-11T22:51:07.653Z,1.20
2023-04-11T22:53:42.607Z,1.27
2023-04-11T22:56:13.060Z,2.13
2023-04-11T22:58:43.473Z,1.83
2023-04-11T23:01:16.022Z,2.17
2023-04-11T23:03:45.618Z,3.40
2023-04-11T23:06:18.429Z,2.90
2023-04-11T23:08:55.531Z,2.07
2023-04-11T23:11:24.198Z,1.33
2023-04-11T23:13:55.238Z,0.97
2023-04-11T23:16:24.008Z,1.60
2023-04-11T23:18:55.486Z,1.30
2023-04-11T23:21:25.714Z,1.93
2023-04-11T23:24:10.586Z,1.70
2023-04-11T23:26:48.642Z,2.10
2023-04-11T23:29:34.220Z,2.70
2023-04-11T23:32:07.206Z,1.33
2023-04-11T23:34:40.359Z,3.13
2023-04-11T23:37:08.872Z,1.37
2023-04-11T23:45:49.974Z,2.23
2023-04-11T23:48:19.315Z,2.87
2023-04-11T23:50:47.269Z,2.80
2023-04-11T23:53:16.068Z,2.40
2023-04-11T23:55:44.151Z,1.50
2023-04-11T23:58:12.093Z,2.40
